Boaz, Wisconsin
Current Conditions -  °F | °C
As of 6:56 PM on Friday 19 Dec 2014 (Local Time) from KLNR Reporting Station
Overcast Overcast  
Wind Chill: 23°   Ceiling: 3500
Heat Index: 31°   Visibility: 10mi
Dew Point: 21°   Wind: 8mph
Humidity: 67%   Direction: 100°E
Pressure: 30.27"   Gusts: NA
Location:  43.4015°N, 90.4109°W
Report Text: KLNR 200056Z AUTO 10007KT 10SM OVC035 M01/M06 A3027 RMK AO2 SLP254 T10061061
Loading
Personal Weather Stations






























Interactive Weather Map New forecast layout! Learn more

10-Day Weather Forecast

Advertisements
Track Severe Weather on mobile